sensor_id;sensor_type;location;lat;lon;timestamp;temperature;humidity
32612;DHT22;19030;49.478;8.986;2023-07-29T00:00:26;17.50;99.90
32612;DHT22;19030;49.478;8.986;2023-07-29T00:02:28;17.40;99.90
32612;DHT22;19030;49.478;8.986;2023-07-29T00:04:31;17.50;99.90
32612;DHT22;19030;49.478;8.986;2023-07-29T00:06:31;17.40;99.90
32612;DHT22;19030;49.478;8.986;2023-07-29T00:08:32;17.40;99.90
32612;DHT22;19030;49.478;8.986;2023-07-29T00:10:36;17.50;99.90
32612;DHT22;19030;49.478;8.986;2023-07-29T00:12:37;17.50;99.90
32612;DHT22;19030;49.478;8.986;2023-07-29T00:14:37;17.50;99.90
32612;DHT22;19030;49.478;8.986;2023-07-29T00:16:38;17.50;99.90
32612;DHT22;19030;49.478;8.986;2023-07-29T00:18:38;17.50;99.90
32612;DHT22;19030;49.478;8.986;2023-07-29T00:20:39;17.50;99.90
32612;DHT22;19030;49.478;8.986;2023-07-29T00:22:40;17.50;99.90
32612;DHT22;19030;49.478;8.986;2023-07-29T00:24:40;17.50;99.90
32612;DHT22;19030;49.478;8.986;2023-07-29T00:26:41;17.50;99.90
32612;DHT22;19030;49.478;8.986;2023-07-29T00:28:42;17.50;99.90
32612;DHT22;19030;49.478;8.986;2023-07-29T00:30:43;17.60;99.90
32612;DHT22;19030;49.478;8.986;2023-07-29T00:32:43;17.50;99.90
32612;DHT22;19030;49.478;8.986;2023-07-29T00:34:44;17.60;99.90
32612;DHT22;19030;49.478;8.986;2023-07-29T00:36:46;17.50;99.90
32612;DHT22;19030;49.478;8.986;2023-07-29T00:38:46;17.60;99.90
32612;DHT22;19030;49.478;8.986;2023-07-29T00:40:47;17.50;99.90
32612;DHT22;19030;49.478;8.986;2023-07-29T00:42:49;17.50;99.90
32612;DHT22;19030;49.478;8.986;2023-07-29T00:44:50;17.50;99.90
32612;DHT22;19030;49.478;8.986;2023-07-29T00:46:52;17.60;99.90
32612;DHT22;19030;49.478;8.986;2023-07-29T00:48:55;17.60;99.90
32612;DHT22;19030;49.478;8.986;2023-07-29T00:50:58;17.60;99.90
32612;DHT22;19030;49.478;8.986;2023-07-29T00:52:58;17.60;99.90
32612;DHT22;19030;49.478;8.986;2023-07-29T00:54:59;17.60;99.90
32612;DHT22;19030;49.478;8.986;2023-07-29T00:57:00;17.60;99.90
32612;DHT22;19030;49.478;8.986;2023-07-29T00:59:02;17.70;99.90
32612;DHT22;19030;49.478;8.986;2023-07-29T01:01:02;17.70;99.90
32612;DHT22;19030;49.478;8.986;2023-07-29T01:03:03;17.70;99.90
32612;DHT22;19030;49.478;8.986;2023-07-29T01:05:04;17.70;99.90
32612;DHT22;19030;49.478;8.986;2023-07-29T01:07:14;17.70;99.90
32612;DHT22;19030;49.478;8.986;2023-07-29T01:09:29;17.70;99.90
32612;DHT22;19030;49.478;8.986;2023-07-29T01:14:18;17.60;99.90
32612;DHT22;19030;49.478;8.986;2023-07-29T01:16:29;17.70;99.90
32612;DHT22;19030;49.478;8.986;2023-07-29T01:18:32;17.60;99.90
32612;DHT22;19030;49.478;8.986;2023-07-29T01:20:39;17.60;99.90
32612;DHT22;19030;49.478;8.986;2023-07-29T01:22:41;17.50;99.90
32612;DHT22;19030;49.478;8.986;2023-07-29T01:24:42;17.40;99.90
32612;DHT22;19030;49.478;8.986;2023-07-29T01:26:43;17.40;99.90
32612;DHT22;19030;49.478;8.986;2023-07-29T01:28:44;17.40;99.90
32612;DHT22;19030;49.478;8.986;2023-07-29T01:30:45;17.40;99.90
32612;DHT22;19030;49.478;8.986;2023-07-29T01:33:39;17.40;99.90
32612;DHT22;19030;49.478;8.986;2023-07-29T01:35:24;17.40;99.90
32612;DHT22;19030;49.478;8.986;2023-07-29T01:37:30;17.40;99.90
32612;DHT22;19030;49.478;8.986;2023-07-29T01:39:33;17.40;99.90
32612;DHT22;19030;49.478;8.986;2023-07-29T01:41:35;17.40;99.90
32612;DHT22;19030;49.478;8.986;2023-07-29T01:43:37;17.40;99.90
32612;DHT22;19030;49.478;8.986;2023-07-29T01:45:43;17.40;99.90
32612;DHT22;19030;49.478;8.986;2023-07-29T01:47:44;17.40;99.90
32612;DHT22;19030;49.478;8.986;2023-07-29T01:49:44;17.40;99.90
32612;DHT22;19030;49.478;8.986;2023-07-29T01:51:45;17.50;99.90
32612;DHT22;19030;49.478;8.986;2023-07-29T01:53:46;17.50;99.90
32612;DHT22;19030;49.478;8.986;2023-07-29T01:55:46;17.40;99.90
32612;DHT22;19030;49.478;8.986;2023-07-29T01:57:47;17.50;99.90
32612;DHT22;19030;49.478;8.986;2023-07-29T01:59:48;17.50;99.90
32612;DHT22;19030;49.478;8.986;2023-07-29T02:01:48;17.40;99.90
32612;DHT22;19030;49.478;8.986;2023-07-29T02:03:49;17.50;99.90
32612;DHT22;19030;49.478;8.986;2023-07-29T02:05:55;17.40;99.90
32612;DHT22;19030;49.478;8.986;2023-07-29T02:07:55;17.40;99.90
32612;DHT22;19030;49.478;8.986;2023-07-29T02:09:56;17.40;99.90
32612;DHT22;19030;49.478;8.986;2023-07-29T02:11:56;17.40;99.90
32612;DHT22;19030;49.478;8.986;2023-07-29T02:13:57;17.40;99.90
32612;DHT22;19030;49.478;8.986;2023-07-29T02:15:58;17.40;99.90
32612;DHT22;19030;49.478;8.986;2023-07-29T02:17:59;17.40;99.90
32612;DHT22;19030;49.478;8.986;2023-07-29T02:19:59;17.40;99.90
32612;DHT22;19030;49.478;8.986;2023-07-29T02:22:00;17.40;99.90
32612;DHT22;19030;49.478;8.986;2023-07-29T02:24:01;17.40;99.90
32612;DHT22;19030;49.478;8.986;2023-07-29T02:26:01;17.40;99.90
32612;DHT22;19030;49.478;8.986;2023-07-29T02:28:02;17.40;99.90
32612;DHT22;19030;49.478;8.986;2023-07-29T02:30:04;17.40;99.90
32612;DHT22;19030;49.478;8.986;2023-07-29T02:32:05;17.40;99.90
32612;DHT22;19030;49.478;8.986;2023-07-29T02:34:06;17.30;99.90
32612;DHT22;19030;49.478;8.986;2023-07-29T02:36:06;17.30;99.90
32612;DHT22;19030;49.478;8.986;2023-07-29T02:38:07;17.30;99.90
32612;DHT22;19030;49.478;8.986;2023-07-29T02:40:08;17.30;99.90
32612;DHT22;19030;49.478;8.986;2023-07-29T02:42:08;17.30;99.90
32612;DHT22;19030;49.478;8.986;2023-07-29T02:44:09;17.30;99.90
32612;DHT22;19030;49.478;8.986;2023-07-29T02:46:10;17.30;99.90
32612;DHT22;19030;49.478;8.986;2023-07-29T02:48:10;17.30;99.90
32612;DHT22;19030;49.478;8.986;2023-07-29T02:50:11;17.30;99.90
32612;DHT22;19030;49.478;8.986;2023-07-29T02:52:11;17.30;99.90
32612;DHT22;19030;49.478;8.986;2023-07-29T02:54:12;17.30;99.90
32612;DHT22;19030;49.478;8.986;2023-07-29T02:56:13;17.20;99.90
32612;DHT22;19030;49.478;8.986;2023-07-29T02:58:14;17.30;99.90
32612;DHT22;19030;49.478;8.986;2023-07-29T03:00:14;17.20;99.90
32612;DHT22;19030;49.478;8.986;2023-07-29T03:02:15;17.20;99.90
32612;DHT22;19030;49.478;8.986;2023-07-29T03:04:16;17.30;99.90
32612;DHT22;19030;49.478;8.986;2023-07-29T03:06:18;17.30;99.90
32612;DHT22;19030;49.478;8.986;2023-07-29T03:08:19;17.30;99.90
32612;DHT22;19030;49.478;8.986;2023-07-29T03:10:20;17.30;99.90
32612;DHT22;19030;49.478;8.986;2023-07-29T03:12:21;17.30;99.90
32612;DHT22;19030;49.478;8.986;2023-07-29T03:14:22;17.20;99.90
32612;DHT22;19030;49.478;8.986;2023-07-29T03:16:22;17.30;99.90
32612;DHT22;19030;49.478;8.986;2023-07-29T03:18:28;17.30;99.90
32612;DHT22;19030;49.478;8.986;2023-07-29T03:20:28;17.20;99.90
32612;DHT22;19030;49.478;8.986;2023-07-29T03:22:29;17.20;99.90
32612;DHT22;19030;49.478;8.986;2023-07-29T03:24:30;17.20;99.90
32612;DHT22;19030;49.478;8.986;2023-07-29T03:26:31;17.20;99.90
32612;DHT22;19030;49.478;8.986;2023-07-29T03:28:33;17.20;99.90
32612;DHT22;19030;49.478;8.986;2023-07-29T03:30:34;17.20;99.90
32612;DHT22;19030;49.478;8.986;2023-07-29T03:32:34;17.30;99.90
32612;DHT22;19030;49.478;8.986;2023-07-29T03:34:35;17.20;99.90
32612;DHT22;19030;49.478;8.986;2023-07-29T03:36:36;17.20;99.90
32612;DHT22;19030;49.478;8.986;2023-07-29T03:38:36;17.20;99.90
32612;DHT22;19030;49.478;8.986;2023-07-29T03:40:41;17.10;99.90
32612;DHT22;19030;49.478;8.986;2023-07-29T03:42:41;17.10;99.90
32612;DHT22;19030;49.478;8.986;2023-07-29T03:44:42;17.10;99.90
32612;DHT22;19030;49.478;8.986;2023-07-29T03:46:42;17.10;99.90
32612;DHT22;19030;49.478;8.986;2023-07-29T03:48:45;17.10;99.90
32612;DHT22;19030;49.478;8.986;2023-07-29T03:50:46;17.10;99.90
32612;DHT22;19030;49.478;8.986;2023-07-29T03:52:46;17.10;99.90
32612;DHT22;19030;49.478;8.986;2023-07-29T03:54:47;17.00;99.90
32612;DHT22;19030;49.478;8.986;2023-07-29T03:56:48;17.10;99.90
32612;DHT22;19030;49.478;8.986;2023-07-29T03:58:48;17.10;99.90
32612;DHT22;19030;49.478;8.986;2023-07-29T04:00:49;17.10;99.90
32612;DHT22;19030;49.478;8.986;2023-07-29T04:02:50;17.10;99.90
32612;DHT22;19030;49.478;8.986;2023-07-29T04:04:52;17.00;99.90
32612;DHT22;19030;49.478;8.986;2023-07-29T04:06:53;17.10;99.90
32612;DHT22;19030;49.478;8.986;2023-07-29T04:08:53;17.10;99.90
32612;DHT22;19030;49.478;8.986;2023-07-29T04:10:54;17.10;99.90
32612;DHT22;19030;49.478;8.986;2023-07-29T04:12:55;17.10;99.90
32612;DHT22;19030;49.478;8.986;2023-07-29T04:14:56;17.10;99.90
32612;DHT22;19030;49.478;8.986;2023-07-29T04:16:57;17.10;99.90
32612;DHT22;19030;49.478;8.986;2023-07-29T04:18:58;17.10;99.90
32612;DHT22;19030;49.478;8.986;2023-07-29T04:20:59;17.10;99.90
32612;DHT22;19030;49.478;8.986;2023-07-29T04:22:59;17.10;99.90
32612;DHT22;19030;49.478;8.986;2023-07-29T04:25:00;17.10;99.90
32612;DHT22;19030;49.478;8.986;2023-07-29T04:27:00;17.20;99.90
32612;DHT22;19030;49.478;8.986;2023-07-29T04:29:01;17.20;99.90
32612;DHT22;19030;49.478;8.986;2023-07-29T04:31:02;17.20;99.90
32612;DHT22;19030;49.478;8.986;2023-07-29T04:33:03;17.20;99.90
32612;DHT22;19030;49.478;8.986;2023-07-29T04:35:04;17.30;99.90
32612;DHT22;19030;49.478;8.986;2023-07-29T04:37:05;17.30;99.90
32612;DHT22;19030;49.478;8.986;2023-07-29T04:39:05;17.40;99.90
32612;DHT22;19030;49.478;8.986;2023-07-29T04:41:06;17.40;99.90
32612;DHT22;19030;49.478;8.986;2023-07-29T04:43:09;17.40;99.90
32612;DHT22;19030;49.478;8.986;2023-07-29T04:45:10;17.40;99.90
32612;DHT22;19030;49.478;8.986;2023-07-29T04:47:10;17.50;99.90
32612;DHT22;19030;49.478;8.986;2023-07-29T04:49:11;17.40;99.90
32612;DHT22;19030;49.478;8.986;2023-07-29T04:51:11;17.50;99.90
32612;DHT22;19030;49.478;8.986;2023-07-29T04:53:14;17.50;99.90
32612;DHT22;19030;49.478;8.986;2023-07-29T04:55:15;17.50;99.90
32612;DHT22;19030;49.478;8.986;2023-07-29T04:57:16;17.50;99.90
32612;DHT22;19030;49.478;8.986;2023-07-29T04:59:16;17.50;99.90
32612;DHT22;19030;49.478;8.986;2023-07-29T05:01:17;17.50;99.90
32612;DHT22;19030;49.478;8.986;2023-07-29T05:03:17;17.50;99.90
32612;DHT22;19030;49.478;8.986;2023-07-29T05:05:18;17.50;99.90
32612;DHT22;19030;49.478;8.986;2023-07-29T05:07:19;17.50;99.90
32612;DHT22;19030;49.478;8.986;2023-07-29T05:09:20;17.60;99.90
32612;DHT22;19030;49.478;8.986;2023-07-29T05:11:22;17.50;99.90
32612;DHT22;19030;49.478;8.986;2023-07-29T05:13:23;17.50;99.90
32612;DHT22;19030;49.478;8.986;2023-07-29T05:15:24;17.50;99.90
32612;DHT22;19030;49.478;8.986;2023-07-29T05:17:24;17.50;99.90
32612;DHT22;19030;49.478;8.986;2023-07-29T05:19:25;17.50;99.90
32612;DHT22;19030;49.478;8.986;2023-07-29T05:21:25;17.50;99.90
32612;DHT22;19030;49.478;8.986;2023-07-29T05:23:26;17.50;99.90
32612;DHT22;19030;49.478;8.986;2023-07-29T05:25:27;17.50;99.90
32612;DHT22;19030;49.478;8.986;2023-07-29T05:27:28;17.40;99.90
32612;DHT22;19030;49.478;8.986;2023-07-29T05:29:28;17.40;99.90
32612;DHT22;19030;49.478;8.986;2023-07-29T05:31:29;17.40;99.90
32612;DHT22;19030;49.478;8.986;2023-07-29T05:33:30;17.40;99.90
32612;DHT22;19030;49.478;8.986;2023-07-29T05:35:30;17.50;99.90
32612;DHT22;19030;49.478;8.986;2023-07-29T05:37:31;17.40;99.90
32612;DHT22;19030;49.478;8.986;2023-07-29T05:39:31;17.50;99.90
32612;DHT22;19030;49.478;8.986;2023-07-29T05:41:33;17.50;99.90
32612;DHT22;19030;49.478;8.986;2023-07-29T05:43:34;17.40;99.90
32612;DHT22;19030;49.478;8.986;2023-07-29T05:45:34;17.40;99.90
32612;DHT22;19030;49.478;8.986;2023-07-29T05:47:35;17.50;99.90
32612;DHT22;19030;49.478;8.986;2023-07-29T05:49:35;17.50;99.90
32612;DHT22;19030;49.478;8.986;2023-07-29T05:51:36;17.50;99.90
32612;DHT22;19030;49.478;8.986;2023-07-29T05:53:37;17.50;99.90
32612;DHT22;19030;49.478;8.986;2023-07-29T05:55:37;17.60;99.90
32612;DHT22;19030;49.478;8.986;2023-07-29T05:57:38;17.60;99.90
32612;DHT22;19030;49.478;8.986;2023-07-29T05:59:41;17.60;99.90
32612;DHT22;19030;49.478;8.986;2023-07-29T06:01:42;17.60;99.90
32612;DHT22;19030;49.478;8.986;2023-07-29T06:03:43;17.60;99.90
32612;DHT22;19030;49.478;8.986;2023-07-29T06:05:43;17.60;99.90
32612;DHT22;19030;49.478;8.986;2023-07-29T06:07:44;17.60;99.90
32612;DHT22;19030;49.478;8.986;2023-07-29T06:09:46;17.60;99.90
32612;DHT22;19030;49.478;8.986;2023-07-29T06:11:46;17.60;99.90
32612;DHT22;19030;49.478;8.986;2023-07-29T06:13:47;17.60;99.90
32612;DHT22;19030;49.478;8.986;2023-07-29T06:15:48;17.60;99.90
32612;DHT22;19030;49.478;8.986;2023-07-29T06:17:50;17.60;99.90
32612;DHT22;19030;49.478;8.986;2023-07-29T06:19:51;17.60;99.90
32612;DHT22;19030;49.478;8.986;2023-07-29T06:21:55;17.50;99.90
32612;DHT22;19030;49.478;8.986;2023-07-29T06:23:56;17.50;99.90
32612;DHT22;19030;49.478;8.986;2023-07-29T06:25:57;17.50;99.90
32612;DHT22;19030;49.478;8.986;2023-07-29T06:27:57;17.60;99.90
32612;DHT22;19030;49.478;8.986;2023-07-29T06:29:58;17.60;99.90
32612;DHT22;19030;49.478;8.986;2023-07-29T06:31:59;17.60;99.90
32612;DHT22;19030;49.478;8.986;2023-07-29T06:33:59;17.70;99.90
32612;DHT22;19030;49.478;8.986;2023-07-29T06:36:00;17.70;99.90
32612;DHT22;19030;49.478;8.986;2023-07-29T06:38:00;17.80;99.90
32612;DHT22;19030;49.478;8.986;2023-07-29T06:40:01;17.90;99.90
32612;DHT22;19030;49.478;8.986;2023-07-29T06:42:02;18.00;99.90
32612;DHT22;19030;49.478;8.986;2023-07-29T06:44:03;18.10;99.90
32612;DHT22;19030;49.478;8.986;2023-07-29T06:46:04;18.20;99.90
32612;DHT22;19030;49.478;8.986;2023-07-29T06:48:04;18.20;99.90
32612;DHT22;19030;49.478;8.986;2023-07-29T06:50:05;18.30;99.90
32612;DHT22;19030;49.478;8.986;2023-07-29T06:52:06;18.40;99.90
32612;DHT22;19030;49.478;8.986;2023-07-29T06:54:07;18.40;99.90
32612;DHT22;19030;49.478;8.986;2023-07-29T06:56:07;18.40;99.90
32612;DHT22;19030;49.478;8.986;2023-07-29T06:58:08;18.40;99.90
32612;DHT22;19030;49.478;8.986;2023-07-29T07:00:09;18.40;99.90
32612;DHT22;19030;49.478;8.986;2023-07-29T07:02:09;18.40;99.90
32612;DHT22;19030;49.478;8.986;2023-07-29T07:04:10;18.30;99.90
32612;DHT22;19030;49.478;8.986;2023-07-29T07:06:10;18.30;99.90
32612;DHT22;19030;49.478;8.986;2023-07-29T07:08:11;18.30;99.90
32612;DHT22;19030;49.478;8.986;2023-07-29T07:10:11;18.20;99.90
32612;DHT22;19030;49.478;8.986;2023-07-29T07:12:12;18.30;99.90
32612;DHT22;19030;49.478;8.986;2023-07-29T07:14:13;18.30;99.90
32612;DHT22;19030;49.478;8.986;2023-07-29T07:16:13;18.30;99.90
32612;DHT22;19030;49.478;8.986;2023-07-29T07:18:14;18.40;99.90
32612;DHT22;19030;49.478;8.986;2023-07-29T07:20:14;18.40;99.90
32612;DHT22;19030;49.478;8.986;2023-07-29T07:22:16;18.50;99.90
32612;DHT22;19030;49.478;8.986;2023-07-29T07:24:16;18.50;99.90
32612;DHT22;19030;49.478;8.986;2023-07-29T07:26:17;18.50;99.90
32612;DHT22;19030;49.478;8.986;2023-07-29T07:28:17;18.50;99.90
32612;DHT22;19030;49.478;8.986;2023-07-29T07:30:18;18.60;99.90
32612;DHT22;19030;49.478;8.986;2023-07-29T07:32:18;18.60;99.90
32612;DHT22;19030;49.478;8.986;2023-07-29T07:34:22;18.60;99.90
32612;DHT22;19030;49.478;8.986;2023-07-29T07:36:22;18.60;99.90
32612;DHT22;19030;49.478;8.986;2023-07-29T07:38:23;18.80;99.90
32612;DHT22;19030;49.478;8.986;2023-07-29T07:40:23;18.90;99.90
32612;DHT22;19030;49.478;8.986;2023-07-29T07:42:24;19.10;99.90
32612;DHT22;19030;49.478;8.986;2023-07-29T07:44:25;19.30;99.90
32612;DHT22;19030;49.478;8.986;2023-07-29T07:46:26;19.60;99.90
32612;DHT22;19030;49.478;8.986;2023-07-29T07:48:27;20.00;99.90
32612;DHT22;19030;49.478;8.986;2023-07-29T07:50:31;20.20;99.90
32612;DHT22;19030;49.478;8.986;2023-07-29T07:52:32;20.50;99.90
32612;DHT22;19030;49.478;8.986;2023-07-29T07:54:32;20.80;99.90
32612;DHT22;19030;49.478;8.986;2023-07-29T07:56:33;20.90;99.90
32612;DHT22;19030;49.478;8.986;2023-07-29T07:58:34;20.90;99.90
32612;DHT22;19030;49.478;8.986;2023-07-29T08:00:34;21.00;99.90
32612;DHT22;19030;49.478;8.986;2023-07-29T08:02:35;20.90;99.90
32612;DHT22;19030;49.478;8.986;2023-07-29T08:04:35;20.90;99.90
32612;DHT22;19030;49.478;8.986;2023-07-29T08:06:36;20.90;99.90
32612;DHT22;19030;49.478;8.986;2023-07-29T08:08:37;21.00;99.90
32612;DHT22;19030;49.478;8.986;2023-07-29T08:10:37;21.10;99.90
32612;DHT22;19030;49.478;8.986;2023-07-29T08:12:38;21.00;99.90
32612;DHT22;19030;49.478;8.986;2023-07-29T08:14:38;21.10;99.90
32612;DHT22;19030;49.478;8.986;2023-07-29T08:16:39;21.10;99.90
32612;DHT22;19030;49.478;8.986;2023-07-29T08:18:39;21.30;99.90
32612;DHT22;19030;49.478;8.986;2023-07-29T08:20:40;21.60;99.90
32612;DHT22;19030;49.478;8.986;2023-07-29T08:22:40;22.00;99.90
32612;DHT22;19030;49.478;8.986;2023-07-29T08:24:41;22.30;99.90
32612;DHT22;19030;49.478;8.986;2023-07-29T08:26:41;22.50;99.90
32612;DHT22;19030;49.478;8.986;2023-07-29T08:28:42;22.50;99.90
32612;DHT22;19030;49.478;8.986;2023-07-29T08:30:42;22.30;99.90
32612;DHT22;19030;49.478;8.986;2023-07-29T08:32:43;22.00;99.90
32612;DHT22;19030;49.478;8.986;2023-07-29T08:34:45;21.80;99.90
32612;DHT22;19030;49.478;8.986;2023-07-29T08:36:45;21.70;99.90
32612;DHT22;19030;49.478;8.986;2023-07-29T08:38:46;21.50;99.90
32612;DHT22;19030;49.478;8.986;2023-07-29T08:41:19;21.30;99.90
32612;DHT22;19030;49.478;8.986;2023-07-29T08:43:29;21.20;99.90
32612;DHT22;19030;49.478;8.986;2023-07-29T08:45:35;21.30;99.90
32612;DHT22;19030;49.478;8.986;2023-07-29T08:47:39;21.40;99.90
32612;DHT22;19030;49.478;8.986;2023-07-29T08:49:40;21.80;99.90
32612;DHT22;19030;49.478;8.986;2023-07-29T08:51:42;22.60;99.90
32612;DHT22;19030;49.478;8.986;2023-07-29T08:53:43;22.80;99.90
32612;DHT22;19030;49.478;8.986;2023-07-29T08:55:44;22.80;99.90
32612;DHT22;19030;49.478;8.986;2023-07-29T08:57:45;22.60;99.90
32612;DHT22;19030;49.478;8.986;2023-07-29T08:59:46;22.50;99.90
32612;DHT22;19030;49.478;8.986;2023-07-29T09:01:47;22.20;99.90
32612;DHT22;19030;49.478;8.986;2023-07-29T09:03:48;21.90;99.90
32612;DHT22;19030;49.478;8.986;2023-07-29T09:05:49;21.70;99.90
32612;DHT22;19030;49.478;8.986;2023-07-29T09:07:51;21.60;99.90
32612;DHT22;19030;49.478;8.986;2023-07-29T09:09:53;21.50;99.90
32612;DHT22;19030;49.478;8.986;2023-07-29T09:11:53;21.40;99.90
32612;DHT22;19030;49.478;8.986;2023-07-29T09:13:54;21.30;99.90
32612;DHT22;19030;49.478;8.986;2023-07-29T09:15:57;21.40;99.90
32612;DHT22;19030;49.478;8.986;2023-07-29T09:17:58;21.60;99.90
32612;DHT22;19030;49.478;8.986;2023-07-29T09:19:59;21.80;99.90
32612;DHT22;19030;49.478;8.986;2023-07-29T09:22:00;22.10;99.90
32612;DHT22;19030;49.478;8.986;2023-07-29T09:24:04;22.50;99.90
32612;DHT22;19030;49.478;8.986;2023-07-29T09:26:05;22.80;99.90
32612;DHT22;19030;49.478;8.986;2023-07-29T09:28:14;23.10;99.90
32612;DHT22;19030;49.478;8.986;2023-07-29T09:30:18;23.40;99.90
32612;DHT22;19030;49.478;8.986;2023-07-29T09:32:20;23.80;99.90
32612;DHT22;19030;49.478;8.986;2023-07-29T09:34:20;25.00;99.90
32612;DHT22;19030;49.478;8.986;2023-07-29T09:36:21;26.10;99.90
32612;DHT22;19030;49.478;8.986;2023-07-29T09:38:29;27.00;99.90
32612;DHT22;19030;49.478;8.986;2023-07-29T09:40:37;27.50;99.90
32612;DHT22;19030;49.478;8.986;2023-07-29T09:42:38;27.90;99.90
32612;DHT22;19030;49.478;8.986;2023-07-29T09:44:39;28.00;99.90
32612;DHT22;19030;49.478;8.986;2023-07-29T09:46:39;28.30;99.90
32612;DHT22;19030;49.478;8.986;2023-07-29T09:48:40;29.20;99.90
32612;DHT22;19030;49.478;8.986;2023-07-29T09:50:43;28.80;99.90
32612;DHT22;19030;49.478;8.986;2023-07-29T09:52:44;28.00;99.90
32612;DHT22;19030;49.478;8.986;2023-07-29T09:54:45;27.80;99.90
32612;DHT22;19030;49.478;8.986;2023-07-29T09:56:47;27.40;99.90
32612;DHT22;19030;49.478;8.986;2023-07-29T09:58:48;26.60;99.90
32612;DHT22;19030;49.478;8.986;2023-07-29T10:00:48;26.40;99.90
32612;DHT22;19030;49.478;8.986;2023-07-29T10:02:49;25.90;99.90
32612;DHT22;19030;49.478;8.986;2023-07-29T10:04:52;25.60;99.90
32612;DHT22;19030;49.478;8.986;2023-07-29T10:06:53;25.30;99.90
32612;DHT22;19030;49.478;8.986;2023-07-29T10:08:54;25.50;99.90
32612;DHT22;19030;49.478;8.986;2023-07-29T10:10:56;27.00;99.90
32612;DHT22;19030;49.478;8.986;2023-07-29T10:12:58;29.10;99.90
32612;DHT22;19030;49.478;8.986;2023-07-29T10:15:00;28.90;99.90
32612;DHT22;19030;49.478;8.986;2023-07-29T10:17:02;28.00;99.90
32612;DHT22;19030;49.478;8.986;2023-07-29T10:19:04;27.30;99.90
32612;DHT22;19030;49.478;8.986;2023-07-29T10:21:05;27.70;99.90
32612;DHT22;19030;49.478;8.986;2023-07-29T10:23:07;27.60;99.90
32612;DHT22;19030;49.478;8.986;2023-07-29T10:25:15;27.60;99.90
32612;DHT22;19030;49.478;8.986;2023-07-29T10:27:17;26.80;99.90
32612;DHT22;19030;49.478;8.986;2023-07-29T10:29:20;26.10;99.90
32612;DHT22;19030;49.478;8.986;2023-07-29T10:31:22;25.50;99.90
32612;DHT22;19030;49.478;8.986;2023-07-29T10:33:23;25.40;99.90
32612;DHT22;19030;49.478;8.986;2023-07-29T10:35:24;25.50;99.90
32612;DHT22;19030;49.478;8.986;2023-07-29T10:37:26;25.60;99.90
32612;DHT22;19030;49.478;8.986;2023-07-29T10:39:26;25.50;99.90
32612;DHT22;19030;49.478;8.986;2023-07-29T10:43:56;25.10;99.90
32612;DHT22;19030;49.478;8.986;2023-07-29T10:45:58;24.90;99.90
32612;DHT22;19030;49.478;8.986;2023-07-29T10:50:34;24.50;99.90
32612;DHT22;19030;49.478;8.986;2023-07-29T10:54:46;24.40;99.90
32612;DHT22;19030;49.478;8.986;2023-07-29T10:56:47;24.80;99.90
32612;DHT22;19030;49.478;8.986;2023-07-29T10:58:48;25.30;99.90
32612;DHT22;19030;49.478;8.986;2023-07-29T11:00:49;26.10;99.90
32612;DHT22;19030;49.478;8.986;2023-07-29T11:03:01;26.80;99.90
32612;DHT22;19030;49.478;8.986;2023-07-29T11:05:06;27.20;99.90
32612;DHT22;19030;49.478;8.986;2023-07-29T11:09:57;27.80;99.90
32612;DHT22;19030;49.478;8.986;2023-07-29T11:12:05;27.80;99.90
32612;DHT22;19030;49.478;8.986;2023-07-29T11:14:08;27.80;99.90
32612;DHT22;19030;49.478;8.986;2023-07-29T11:16:10;27.90;99.90
32612;DHT22;19030;49.478;8.986;2023-07-29T11:18:12;28.10;99.90
32612;DHT22;19030;49.478;8.986;2023-07-29T11:20:17;28.40;99.90
32612;DHT22;19030;49.478;8.986;2023-07-29T11:22:18;28.60;99.90
32612;DHT22;19030;49.478;8.986;2023-07-29T11:24:19;28.90;99.90
32612;DHT22;19030;49.478;8.986;2023-07-29T11:26:19;29.00;97.00
32612;DHT22;19030;49.478;8.986;2023-07-29T11:28:20;28.60;98.30
32612;DHT22;19030;49.478;8.986;2023-07-29T11:30:22;28.20;99.70
32612;DHT22;19030;49.478;8.986;2023-07-29T11:32:35;28.40;99.60
32612;DHT22;19030;49.478;8.986;2023-07-29T11:34:35;28.40;99.30
32612;DHT22;19030;49.478;8.986;2023-07-29T11:36:36;28.50;98.60
32612;DHT22;19030;49.478;8.986;2023-07-29T11:38:39;28.30;98.70
32612;DHT22;19030;49.478;8.986;2023-07-29T11:40:40;27.70;99.40
32612;DHT22;19030;49.478;8.986;2023-07-29T11:42:40;27.20;99.90
32612;DHT22;19030;49.478;8.986;2023-07-29T11:44:41;26.90;99.90
32612;DHT22;19030;49.478;8.986;2023-07-29T11:46:43;26.80;99.90
32612;DHT22;19030;49.478;8.986;2023-07-29T11:48:44;26.60;99.90
32612;DHT22;19030;49.478;8.986;2023-07-29T11:50:45;26.40;99.90
32612;DHT22;19030;49.478;8.986;2023-07-29T11:52:46;26.20;99.90
32612;DHT22;19030;49.478;8.986;2023-07-29T11:54:49;26.40;99.90
32612;DHT22;19030;49.478;8.986;2023-07-29T11:56:50;26.60;99.90
32612;DHT22;19030;49.478;8.986;2023-07-29T11:58:51;27.00;99.90
32612;DHT22;19030;49.478;8.986;2023-07-29T12:00:51;27.30;99.90
32612;DHT22;19030;49.478;8.986;2023-07-29T12:02:52;27.60;99.90
32612;DHT22;19030;49.478;8.986;2023-07-29T12:04:53;28.30;99.90
32612;DHT22;19030;49.478;8.986;2023-07-29T12:06:54;28.80;99.50
32612;DHT22;19030;49.478;8.986;2023-07-29T12:08:55;29.10;97.40
32612;DHT22;19030;49.478;8.986;2023-07-29T12:10:56;28.90;97.60
32612;DHT22;19030;49.478;8.986;2023-07-29T12:12:56;28.70;96.90
32612;DHT22;19030;49.478;8.986;2023-07-29T12:14:57;28.70;96.90
32612;DHT22;19030;49.478;8.986;2023-07-29T12:17:02;28.90;97.00
32612;DHT22;19030;49.478;8.986;2023-07-29T12:19:04;28.50;97.10
32612;DHT22;19030;49.478;8.986;2023-07-29T12:21:04;28.60;96.40
32612;DHT22;19030;49.478;8.986;2023-07-29T12:23:05;28.40;95.90
32612;DHT22;19030;49.478;8.986;2023-07-29T12:25:08;28.00;95.90
32612;DHT22;19030;49.478;8.986;2023-07-29T12:27:12;27.80;97.10
32612;DHT22;19030;49.478;8.986;2023-07-29T12:29:16;27.80;97.20
32612;DHT22;19030;49.478;8.986;2023-07-29T12:31:16;28.00;96.00
32612;DHT22;19030;49.478;8.986;2023-07-29T12:33:34;28.00;95.40
32612;DHT22;19030;49.478;8.986;2023-07-29T12:35:36;28.00;95.30
32612;DHT22;19030;49.478;8.986;2023-07-29T12:37:37;28.10;95.60
32612;DHT22;19030;49.478;8.986;2023-07-29T12:39:42;28.40;94.40
32612;DHT22;19030;49.478;8.986;2023-07-29T12:41:43;28.50;93.90
32612;DHT22;19030;49.478;8.986;2023-07-29T12:43:43;28.70;92.00
32612;DHT22;19030;49.478;8.986;2023-07-29T12:45:45;28.40;90.60
32612;DHT22;19030;49.478;8.986;2023-07-29T12:47:46;28.40;91.20
32612;DHT22;19030;49.478;8.986;2023-07-29T12:49:46;28.20;90.70
32612;DHT22;19030;49.478;8.986;2023-07-29T12:51:47;28.00;91.40
32612;DHT22;19030;49.478;8.986;2023-07-29T12:53:47;28.10;91.50
32612;DHT22;19030;49.478;8.986;2023-07-29T12:55:48;28.10;91.70
32612;DHT22;19030;49.478;8.986;2023-07-29T12:57:49;28.10;92.00
32612;DHT22;19030;49.478;8.986;2023-07-29T12:59:50;28.00;92.10